Bracknell, United Kingdom
Current Conditions -  °F | °C
As of 9:20 PM on Wednesday 26 Nov 2014 (Local Time) from EGLF Reporting Station
Moderate Rain Moderate Rain  
Wind Chill: 44°   Ceiling: 200
Heat Index: 46°   Visibility: 1.3mi
Dew Point: 46°   Wind: 5mph
Humidity: 100%   Direction: 330°NNW
Pressure: 29.77"   Gusts: NA
Location:  51.42°N, 0.75°W
Report Text: EGLF 262120Z 33004KT 2200 RA BKN002 08/08 Q1008
Loading
Personal Weather Stations






























Interactive Weather Map New forecast layout! Learn more

10-Day Weather Forecast

Advertisements
Track Severe Weather on mobile